createdAt,value
2019-02-24T00:00:47.202Z,1033.74
2019-02-24T00:01:47.189Z,1033.70
2019-02-24T00:02:47.188Z,1033.68
2019-02-24T00:03:47.196Z,1033.63
2019-02-24T00:04:47.174Z,1033.68
2019-02-24T00:05:47.179Z,1033.62
2019-02-24T00:06:47.148Z,1033.61
2019-02-24T00:07:47.127Z,1033.63
2019-02-24T00:08:47.116Z,1033.63
2019-02-24T00:09:47.112Z,1033.59
2019-02-24T00:10:47.109Z,1033.61
2019-02-24T00:11:47.114Z,1033.60
2019-02-24T00:12:47.079Z,1033.63
2019-02-24T00:13:47.073Z,1033.58
2019-02-24T00:14:47.081Z,1033.48
2019-02-24T00:15:47.040Z,1033.48
2019-02-24T00:16:47.059Z,1033.46
2019-02-24T00:17:47.030Z,1033.41
2019-02-24T00:18:47.018Z,1033.38
2019-02-24T00:19:47.002Z,1033.39
2019-02-24T00:20:46.996Z,1033.43
2019-02-24T00:21:47.001Z,1033.37
2019-02-24T00:22:46.966Z,1033.38
2019-02-24T00:23:46.964Z,1033.39
2019-02-24T00:24:46.959Z,1033.41
2019-02-24T00:25:46.942Z,1033.43
2019-02-24T00:26:46.969Z,1033.44
2019-02-24T00:27:46.919Z,1033.45
2019-02-24T00:28:46.901Z,1033.38
2019-02-24T00:29:46.893Z,1033.44
2019-02-24T00:30:46.883Z,1033.42
2019-02-24T00:31:46.916Z,1033.45
2019-02-24T00:32:46.871Z,1033.47
2019-02-24T00:33:46.851Z,1033.41
2019-02-24T00:34:46.842Z,1033.44
2019-02-24T00:35:46.835Z,1033.35
2019-02-24T00:36:46.826Z,1033.41
2019-02-24T00:37:46.836Z,1033.40
2019-02-24T00:38:46.808Z,1033.36
2019-02-24T00:39:46.792Z,1033.38
2019-02-24T00:40:46.777Z,1033.35
2019-02-24T00:41:46.786Z,1033.40
2019-02-24T00:42:46.779Z,1033.38
2019-02-24T00:43:46.762Z,1033.37
2019-02-24T00:44:46.742Z,1033.37
2019-02-24T00:45:46.724Z,1033.32
2019-02-24T00:46:46.753Z,1033.37
2019-02-24T00:47:46.702Z,1033.31
2019-02-24T00:48:46.688Z,1033.34
2019-02-24T00:49:46.685Z,1033.28
2019-02-24T00:50:46.678Z,1033.23
2019-02-24T00:51:46.665Z,1033.20
2019-02-24T00:52:46.666Z,1033.10
2019-02-24T00:53:46.642Z,1033.09
2019-02-24T00:54:46.623Z,1033.12
2019-02-24T00:55:46.626Z,1033.07
2019-02-24T00:56:46.611Z,1033.12
2019-02-24T00:57:46.618Z,1033.10
2019-02-24T00:58:46.588Z,1033.12
2019-02-24T00:59:46.575Z,1033.10
2019-02-24T01:00:46.565Z,1033.06
2019-02-24T01:01:46.558Z,1033.04
2019-02-24T01:02:46.557Z,1033.05
2019-02-24T01:03:46.535Z,1033.11
2019-02-24T01:04:46.524Z,1033.14
2019-02-24T01:05:46.526Z,1033.18
2019-02-24T01:06:46.492Z,1033.11
2019-02-24T01:07:46.514Z,1033.18
2019-02-24T01:08:46.479Z,1033.18
2019-02-24T01:09:46.473Z,1033.24
2019-02-24T01:10:46.461Z,1033.22
2019-02-24T01:11:46.440Z,1033.17
2019-02-24T01:12:46.443Z,1033.22
2019-02-24T01:13:46.429Z,1033.23
2019-02-24T01:14:46.414Z,1033.22
2019-02-24T01:15:46.403Z,1033.17
2019-02-24T01:16:46.384Z,1033.16
2019-02-24T01:17:46.406Z,1033.18
2019-02-24T01:18:46.395Z,1033.19
2019-02-24T01:19:46.354Z,1033.13
2019-02-24T01:20:46.348Z,1033.18
2019-02-24T01:21:46.352Z,1033.18
2019-02-24T01:22:46.340Z,1033.13
2019-02-24T01:23:46.334Z,1033.16
2019-02-24T01:24:46.309Z,1033.15
2019-02-24T01:25:46.294Z,1033.20
2019-02-24T01:26:46.288Z,1033.22
2019-02-24T01:27:46.273Z,1033.17
2019-02-24T01:28:46.294Z,1033.15
2019-02-24T01:29:46.253Z,1033.12
2019-02-24T01:30:46.244Z,1033.10
2019-02-24T01:31:46.220Z,1033.09
2019-02-24T01:32:46.218Z,1033.12
2019-02-24T01:33:46.199Z,1033.13
2019-02-24T01:34:46.209Z,1033.19
2019-02-24T01:35:46.193Z,1033.22
2019-02-24T01:36:46.180Z,1033.23
2019-02-24T01:37:46.165Z,1033.24
2019-02-24T01:38:46.153Z,1033.29
2019-02-24T01:39:46.165Z,1033.23
2019-02-24T01:40:46.136Z,1033.28
2019-02-24T01:41:46.151Z,1033.25
2019-02-24T01:42:46.114Z,1033.27
2019-02-24T01:43:46.116Z,1033.27
2019-02-24T01:44:46.087Z,1033.31
2019-02-24T01:45:46.097Z,1033.31
2019-02-24T01:46:46.080Z,1033.30
2019-02-24T01:47:46.060Z,1033.34
2019-02-24T01:48:46.057Z,1033.38
2019-02-24T01:49:46.037Z,1033.35
2019-02-24T01:50:46.052Z,1033.37
2019-02-24T01:51:46.012Z,1033.27
2019-02-24T01:52:46.006Z,1033.22
2019-02-24T01:53:46.030Z,1033.22
2019-02-24T01:54:45.992Z,1033.16
2019-02-24T01:55:45.963Z,1033.15
2019-02-24T01:56:45.960Z,1033.17
2019-02-24T01:57:45.940Z,1033.16
2019-02-24T01:58:45.935Z,1033.20
2019-02-24T01:59:45.950Z,1033.14
2019-02-24T02:00:45.920Z,1033.09
2019-02-24T02:01:45.920Z,1033.07
2019-02-24T02:02:45.922Z,1033.06
2019-02-24T02:03:45.884Z,1033.03
2019-02-24T02:04:45.873Z,1032.98
2019-02-24T02:05:45.859Z,1032.93
2019-02-24T02:06:45.849Z,1032.87
2019-02-24T02:07:45.888Z,1032.88
2019-02-24T02:08:45.837Z,1032.92
2019-02-24T02:09:45.822Z,1032.96
2019-02-24T02:10:45.825Z,1032.89
2019-02-24T02:11:45.800Z,1032.89
2019-02-24T02:12:45.789Z,1032.82
2019-02-24T02:13:45.799Z,1032.80
2019-02-24T02:14:45.775Z,1032.75
2019-02-24T02:15:45.758Z,1032.73
2019-02-24T02:16:45.739Z,1032.71
2019-02-24T02:17:45.728Z,1032.70
2019-02-24T02:18:45.778Z,1032.70
2019-02-24T02:19:45.726Z,1032.69
2019-02-24T02:20:45.708Z,1032.68
2019-02-24T02:21:45.693Z,1032.67
2019-02-24T02:22:45.687Z,1032.68
2019-02-24T02:23:45.689Z,1032.72
2019-02-24T02:24:45.658Z,1032.70
2019-02-24T02:25:45.650Z,1032.73
2019-02-24T02:26:45.644Z,1032.65
2019-02-24T02:27:45.619Z,1032.63
2019-02-24T02:28:45.630Z,1032.64
2019-02-24T02:29:45.621Z,1032.64
2019-02-24T02:30:45.594Z,1032.61
2019-02-24T02:31:45.595Z,1032.67
2019-02-24T02:32:45.580Z,1032.67
2019-02-24T02:33:45.598Z,1032.66
2019-02-24T02:34:45.558Z,1032.66
2019-02-24T02:35:45.535Z,1032.68
2019-02-24T02:36:45.520Z,1032.65
2019-02-24T02:37:45.525Z,1032.67
2019-02-24T02:38:45.527Z,1032.66
2019-02-24T02:39:45.528Z,1032.60
2019-02-24T02:40:45.488Z,1032.65
2019-02-24T02:41:45.474Z,1032.64
2019-02-24T02:42:45.468Z,1032.66
2019-02-24T02:43:45.475Z,1032.61
2019-02-24T02:44:45.451Z,1032.65
2019-02-24T02:45:45.457Z,1032.64
2019-02-24T02:46:45.426Z,1032.59
2019-02-24T02:47:45.409Z,1032.59
2019-02-24T02:48:45.426Z,1032.57
2019-02-24T02:49:45.385Z,1032.56
2019-02-24T02:50:45.382Z,1032.55
2019-02-24T02:51:45.373Z,1032.57
2019-02-24T02:52:45.370Z,1032.59
2019-02-24T02:53:45.352Z,1032.59
2019-02-24T02:54:45.359Z,1032.64
2019-02-24T02:55:45.348Z,1032.60
2019-02-24T02:56:45.315Z,1032.65
2019-02-24T02:57:45.313Z,1032.64
2019-02-24T02:58:53.888Z,1032.66
2019-02-24T02:59:46.276Z,1032.65
2019-02-24T03:00:45.289Z,1032.63
2019-02-24T03:01:45.261Z,1032.63
2019-02-24T03:02:45.245Z,1032.62
2019-02-24T03:03:45.247Z,1032.68
2019-02-24T03:04:45.260Z,1032.60
2019-02-24T03:05:45.249Z,1032.62
2019-02-24T03:06:45.231Z,1032.62
2019-02-24T03:07:45.201Z,1032.62
2019-02-24T03:08:45.179Z,1032.61
2019-02-24T03:09:45.175Z,1032.62
2019-02-24T03:10:45.182Z,1032.63
2019-02-24T03:11:45.188Z,1032.59
2019-02-24T03:12:45.165Z,1032.58
2019-02-24T03:13:45.139Z,1032.57
2019-02-24T03:14:45.120Z,1032.59
2019-02-24T03:15:45.159Z,1032.61
2019-02-24T03:16:45.131Z,1032.60
2019-02-24T03:17:45.100Z,1032.55
2019-02-24T03:18:45.091Z,1032.60
2019-02-24T03:19:45.071Z,1032.55
2019-02-24T03:20:45.053Z,1032.55
2019-02-24T03:21:45.070Z,1032.58
2019-02-24T03:22:45.031Z,1032.50
2019-02-24T03:23:45.040Z,1032.52
2019-02-24T03:24:45.022Z,1032.56
2019-02-24T03:25:45.006Z,1032.55
2019-02-24T03:26:44.999Z,1032.54
2019-02-24T03:27:44.996Z,1032.55
2019-02-24T03:28:44.964Z,1032.57
2019-02-24T03:29:44.969Z,1032.57
2019-02-24T03:30:44.958Z,1032.58
2019-02-24T03:31:44.961Z,1032.54
2019-02-24T03:32:44.923Z,1032.56
2019-02-24T03:33:45.282Z,1032.51
2019-02-24T03:34:44.906Z,1032.50
2019-02-24T03:35:44.903Z,1032.47
2019-02-24T03:36:44.926Z,1032.46
2019-02-24T03:37:44.882Z,1032.45
2019-02-24T03:38:44.870Z,1032.47
2019-02-24T03:39:44.850Z,1032.41
2019-02-24T03:40:44.851Z,1032.40
2019-02-24T03:41:44.825Z,1032.44
2019-02-24T03:42:44.838Z,1032.42
2019-02-24T03:43:44.814Z,1032.44
2019-02-24T03:44:44.796Z,1032.44
2019-02-24T03:45:44.789Z,1032.48
2019-02-24T03:46:44.801Z,1032.50
2019-02-24T03:47:44.771Z,1032.55
2019-02-24T03:48:44.760Z,1032.55
2019-02-24T03:49:44.747Z,1032.57
2019-02-24T03:50:44.746Z,1032.61
2019-02-24T03:51:44.724Z,1032.58
2019-02-24T03:52:44.730Z,1032.58
2019-02-24T03:53:44.742Z,1032.59
2019-02-24T03:54:44.691Z,1032.55
2019-02-24T03:55:44.683Z,1032.59
2019-02-24T03:56:44.671Z,1032.59
2019-02-24T03:57:44.678Z,1032.60
2019-02-24T03:58:44.675Z,1032.58
2019-02-24T03:59:44.635Z,1032.56
2019-02-24T04:00:44.617Z,1032.54
2019-02-24T04:01:44.623Z,1032.56
2019-02-24T04:02:44.609Z,1032.45
2019-02-24T04:03:44.610Z,1032.41
2019-02-24T04:04:44.582Z,1032.38
2019-02-24T04:05:44.571Z,1032.30
2019-02-24T04:06:44.567Z,1032.22
2019-02-24T04:07:44.556Z,1032.21
2019-02-24T04:08:44.576Z,1032.18
2019-02-24T04:09:44.533Z,1032.08
2019-02-24T04:10:44.526Z,1032.09
2019-02-24T04:11:44.504Z,1032.10
2019-02-24T04:12:44.501Z,1032.06
2019-02-24T04:13:44.500Z,1032.05
2019-02-24T04:14:44.498Z,1032.06
2019-02-24T04:15:44.473Z,1032.04
2019-02-24T04:16:44.466Z,1032.09
2019-02-24T04:17:44.451Z,1032.03
2019-02-24T04:18:44.425Z,1032.07
2019-02-24T04:19:44.439Z,1031.99
2019-02-24T04:20:44.440Z,1031.98
2019-02-24T04:21:44.407Z,1031.95
2019-02-24T04:22:44.389Z,1032.00
2019-02-24T04:23:44.389Z,1031.94
2019-02-24T04:24:44.361Z,1031.95
2019-02-24T04:25:44.374Z,1031.93
2019-02-24T04:26:44.340Z,1031.88
2019-02-24T04:27:44.346Z,1031.83
2019-02-24T04:28:44.328Z,1031.86
2019-02-24T04:29:44.317Z,1031.84
2019-02-24T04:30:44.326Z,1031.79
2019-02-24T04:31:44.292Z,1031.78
2019-02-24T04:32:44.300Z,1031.83
2019-02-24T04:33:45.140Z,1031.83
2019-02-24T04:34:44.270Z,1031.86
2019-02-24T04:35:44.244Z,1031.87
2019-02-24T04:36:44.256Z,1031.83
2019-02-24T04:37:44.218Z,1031.90
2019-02-24T04:38:44.218Z,1031.90
2019-02-24T04:39:44.217Z,1031.90
2019-02-24T04:40:44.204Z,1031.88
2019-02-24T04:41:44.188Z,1031.87
2019-02-24T04:42:44.210Z,1031.91
2019-02-24T04:43:44.160Z,1031.84
2019-02-24T04:44:44.141Z,1031.85
2019-02-24T04:45:44.139Z,1031.86
2019-02-24T04:46:44.127Z,1031.84
2019-02-24T04:47:44.121Z,1031.82
2019-02-24T04:48:44.165Z,1031.84
2019-02-24T04:49:44.096Z,1031.80
2019-02-24T04:50:44.106Z,1031.81
2019-02-24T04:51:44.085Z,1031.83
2019-02-24T04:52:44.072Z,1031.89
2019-02-24T04:53:44.085Z,1031.87
2019-02-24T04:54:44.042Z,1031.87
2019-02-24T04:55:44.026Z,1031.83
2019-02-24T04:56:44.026Z,1031.80
2019-02-24T04:57:44.059Z,1031.86
2019-02-24T04:58:43.998Z,1031.79
2019-02-24T04:59:43.996Z,1031.82
2019-02-24T05:00:43.994Z,1031.87
2019-02-24T05:01:43.977Z,1031.92
2019-02-24T05:02:43.978Z,1031.94
2019-02-24T05:03:43.968Z,1032.01
2019-02-24T05:04:43.960Z,1032.09
2019-02-24T05:05:43.927Z,1032.04
2019-02-24T05:06:43.926Z,1032.07
2019-02-24T05:07:43.903Z,1032.06
2019-02-24T05:08:43.916Z,1032.08
2019-02-24T05:09:43.889Z,1032.05
2019-02-24T05:10:43.862Z,1032.05
2019-02-24T05:11:43.869Z,1032.07
2019-02-24T05:12:43.867Z,1032.05
2019-02-24T05:13:43.881Z,1032.10
2019-02-24T05:14:43.836Z,1032.08
2019-02-24T05:15:43.877Z,1032.08
2019-02-24T05:16:43.802Z,1032.05
2019-02-24T05:17:43.799Z,1032.09
2019-02-24T05:18:43.779Z,1032.08
2019-02-24T05:19:43.806Z,1032.16
2019-02-24T05:20:43.772Z,1032.14
2019-02-24T05:21:43.755Z,1032.15
2019-02-24T05:22:43.740Z,1032.15
2019-02-24T05:23:43.751Z,1032.17
2019-02-24T05:24:43.765Z,1032.17
2019-02-24T05:25:43.723Z,1032.17
2019-02-24T05:26:43.731Z,1032.16
2019-02-24T05:27:43.693Z,1032.15
2019-02-24T05:28:43.678Z,1032.14
2019-02-24T05:29:46.081Z,1032.12
2019-02-24T05:30:43.676Z,1032.19
2019-02-24T05:31:43.648Z,1032.16
2019-02-24T05:32:43.653Z,1032.18
2019-02-24T05:33:43.622Z,1032.20
2019-02-24T05:34:43.617Z,1032.20
2019-02-24T05:35:43.609Z,1032.21
2019-02-24T05:36:43.587Z,1032.17
2019-02-24T05:37:43.583Z,1032.19
2019-02-24T05:38:43.577Z,1032.20
2019-02-24T05:39:43.579Z,1032.23
2019-02-24T05:40:43.564Z,1032.27
2019-02-24T05:41:43.545Z,1032.25
2019-02-24T05:42:43.526Z,1032.22
2019-02-24T05:43:43.535Z,1032.23
2019-02-24T05:44:43.514Z,1032.26
2019-02-24T05:45:43.518Z,1032.25
2019-02-24T05:46:43.492Z,1032.25
2019-02-24T05:47:43.470Z,1032.28
2019-02-24T05:48:43.463Z,1032.30
2019-02-24T05:49:43.445Z,1032.24
2019-02-24T05:50:43.457Z,1032.22
2019-02-24T05:51:43.435Z,1032.21
2019-02-24T05:52:43.441Z,1032.20
2019-02-24T05:53:43.405Z,1032.20
2019-02-24T05:54:43.396Z,1032.18
2019-02-24T05:55:43.415Z,1032.14
2019-02-24T05:56:43.386Z,1032.18
2019-02-24T05:57:43.374Z,1032.20
2019-02-24T05:58:43.366Z,1032.17
2019-02-24T05:59:43.341Z,1032.16
2019-02-24T06:00:43.361Z,1032.12
2019-02-24T06:01:43.337Z,1032.18
2019-02-24T06:02:43.311Z,1032.12
2019-02-24T06:03:43.329Z,1032.09
2019-02-24T06:04:43.298Z,1032.11
2019-02-24T06:05:43.310Z,1032.10
2019-02-24T06:06:43.280Z,1032.09
2019-02-24T06:07:43.265Z,1032.10
2019-02-24T06:08:43.250Z,1032.14
2019-02-24T06:09:43.244Z,1032.09
2019-02-24T06:10:43.252Z,1032.12
2019-02-24T06:11:43.213Z,1032.08
2019-02-24T06:12:43.205Z,1032.05
2019-02-24T06:13:43.191Z,1032.09
2019-02-24T06:14:43.191Z,1032.07
2019-02-24T06:15:43.261Z,1032.04
2019-02-24T06:16:43.171Z,1032.06
2019-02-24T06:17:43.183Z,1032.02
2019-02-24T06:18:43.147Z,1032.06
2019-02-24T06:19:43.139Z,1032.05
2019-02-24T06:20:43.138Z,1032.04
2019-02-24T06:21:43.107Z,1032.05
2019-02-24T06:22:43.100Z,1032.05
2019-02-24T06:23:43.096Z,1032.07
2019-02-24T06:24:43.079Z,1032.01
2019-02-24T06:25:43.091Z,1032.03
2019-02-24T06:26:43.051Z,1032.03
2019-02-24T06:27:43.048Z,1032.08
2019-02-24T06:28:43.042Z,1032.04
2019-02-24T06:29:43.028Z,1032.08
2019-02-24T06:30:43.026Z,1032.02
2019-02-24T06:31:43.026Z,1031.98
2019-02-24T06:32:42.985Z,1031.97
2019-02-24T06:33:42.988Z,1031.99
2019-02-24T06:34:42.979Z,1031.97
2019-02-24T06:35:42.989Z,1031.99
2019-02-24T06:36:42.952Z,1032.01
2019-02-24T06:37:42.947Z,1032.03
2019-02-24T06:38:42.931Z,1031.97
2019-02-24T06:39:42.910Z,1031.95
2019-02-24T06:40:43.184Z,1032.06
2019-02-24T06:41:42.902Z,1032.06
2019-02-24T06:42:42.892Z,1032.03
2019-02-24T06:43:42.869Z,1032.02
2019-02-24T06:44:42.860Z,1031.98
2019-02-24T06:45:42.850Z,1032.00
2019-02-24T06:46:42.854Z,1031.98
2019-02-24T06:47:42.834Z,1032.02
2019-02-24T06:48:42.828Z,1032.01
2019-02-24T06:49:42.813Z,1032.06
2019-02-24T06:50:42.808Z,1032.11
2019-02-24T06:51:42.823Z,1032.09
2019-02-24T06:52:42.787Z,1032.13
2019-02-24T06:53:42.761Z,1032.15
2019-02-24T06:54:42.753Z,1032.17
2019-02-24T06:55:42.749Z,1032.17
2019-02-24T06:56:42.734Z,1032.20
2019-02-24T06:57:42.742Z,1032.18
2019-02-24T06:58:42.704Z,1032.14
2019-02-24T06:59:42.703Z,1032.24
2019-02-24T07:00:42.693Z,1032.28
2019-02-24T07:01:42.705Z,1032.28
2019-02-24T07:02:42.695Z,1032.26
2019-02-24T07:03:42.654Z,1032.25
2019-02-24T07:04:42.648Z,1032.26
2019-02-24T07:05:42.631Z,1032.25
2019-02-24T07:06:42.647Z,1032.29
2019-02-24T07:07:42.621Z,1032.33
2019-02-24T07:08:42.616Z,1032.30
2019-02-24T07:09:42.606Z,1032.27
2019-02-24T07:10:42.597Z,1032.34
2019-02-24T07:11:42.605Z,1032.38
2019-02-24T07:12:42.557Z,1032.35
2019-02-24T07:13:42.558Z,1032.40
2019-02-24T07:14:42.545Z,1032.33
2019-02-24T07:15:42.530Z,1032.37
2019-02-24T07:16:42.533Z,1032.40
2019-02-24T07:17:42.508Z,1032.38
2019-02-24T07:18:42.493Z,1032.37
2019-02-24T07:19:42.492Z,1032.39
2019-02-24T07:20:42.475Z,1032.38
2019-02-24T07:21:42.500Z,1032.35
2019-02-24T07:22:42.458Z,1032.36
2019-02-24T07:23:42.441Z,1032.34
2019-02-24T07:24:42.422Z,1032.29
2019-02-24T07:25:42.417Z,1032.27
2019-02-24T07:26:42.410Z,1032.24
2019-02-24T07:27:42.422Z,1032.28
2019-02-24T07:28:42.395Z,1032.25
2019-02-24T07:29:42.378Z,1032.20
2019-02-24T07:30:42.360Z,1032.22
2019-02-24T07:31:42.361Z,1032.24
2019-02-24T07:32:42.380Z,1032.26
2019-02-24T07:33:42.340Z,1032.25
2019-02-24T07:34:42.334Z,1032.18
2019-02-24T07:35:42.309Z,1032.22
2019-02-24T07:36:42.323Z,1032.16
2019-02-24T07:37:42.325Z,1032.23
2019-02-24T07:38:42.281Z,1032.15
2019-02-24T07:39:42.289Z,1032.20
2019-02-24T07:40:42.264Z,1032.18
2019-02-24T07:41:42.254Z,1032.18
2019-02-24T07:42:42.241Z,1032.19
2019-02-24T07:43:42.240Z,1032.14
2019-02-24T07:44:42.213Z,1032.08
2019-02-24T07:45:42.211Z,1032.08
2019-02-24T07:46:42.195Z,1032.02
2019-02-24T07:47:42.181Z,1032.05
2019-02-24T07:48:42.201Z,1031.98
2019-02-24T07:49:42.166Z,1032.00
2019-02-24T07:50:42.147Z,1032.00
2019-02-24T07:51:42.281Z,1031.95
2019-02-24T07:52:42.137Z,1031.99
2019-02-24T07:53:42.170Z,1031.98
2019-02-24T07:54:42.118Z,1032.05
2019-02-24T07:55:42.093Z,1032.07
2019-02-24T07:56:42.084Z,1032.10
2019-02-24T07:57:42.072Z,1032.12
2019-02-24T07:58:42.060Z,1032.15
2019-02-24T07:59:42.081Z,1032.15
2019-02-24T08:00:42.053Z,1032.13
2019-02-24T08:01:42.586Z,1032.14
2019-02-24T08:02:42.017Z,1032.14
2019-02-24T08:03:42.040Z,1032.15
2019-02-24T08:04:42.020Z,1032.15
2019-02-24T08:05:42.000Z,1032.13
2019-02-24T08:06:42.599Z,1032.16
2019-02-24T08:07:41.962Z,1032.18
2019-02-24T08:08:41.950Z,1032.20
2019-02-24T08:09:41.976Z,1032.16
2019-02-24T08:10:41.938Z,1032.16
2019-02-24T08:11:41.940Z,1032.14
2019-02-24T08:12:41.937Z,1032.23
2019-02-24T08:13:41.905Z,1032.16
2019-02-24T08:14:41.895Z,1032.19
2019-02-24T08:15:41.881Z,1032.19
2019-02-24T08:16:41.871Z,1032.21
2019-02-24T08:17:41.900Z,1032.17
2019-02-24T08:18:49.330Z,1032.15
2019-02-24T08:19:42.858Z,1032.19
2019-02-24T08:20:41.823Z,1032.18
2019-02-24T08:21:41.842Z,1032.20
2019-02-24T08:22:41.807Z,1032.13
2019-02-24T08:23:41.799Z,1032.14
2019-02-24T08:24:41.792Z,1032.07
2019-02-24T08:25:41.786Z,1032.06
2019-02-24T08:26:41.814Z,1032.12
2019-02-24T08:27:41.769Z,1032.11
2019-02-24T08:28:41.741Z,1032.17
2019-02-24T08:29:41.728Z,1032.16
2019-02-24T08:30:42.111Z,1032.07
2019-02-24T08:31:41.717Z,1032.07
2019-02-24T08:32:41.717Z,1032.06
2019-02-24T08:33:41.680Z,1032.05
2019-02-24T08:34:41.665Z,1032.07
2019-02-24T08:35:41.671Z,1032.02
2019-02-24T08:36:41.665Z,1032.00
2019-02-24T08:37:41.670Z,1031.97
2019-02-24T08:38:41.648Z,1031.97
2019-02-24T08:39:41.618Z,1031.99
2019-02-24T08:40:41.604Z,1032.07
2019-02-24T08:41:41.595Z,1032.07
2019-02-24T08:42:41.611Z,1032.10
2019-02-24T08:43:41.576Z,1032.07
2019-02-24T08:44:41.576Z,1032.11
2019-02-24T08:45:41.585Z,1032.10
2019-02-24T08:46:41.556Z,1032.14
2019-02-24T08:47:41.554Z,1032.17
2019-02-24T08:48:41.521Z,1032.15
2019-02-24T08:49:41.520Z,1032.16
2019-02-24T08:50:41.511Z,1032.16
2019-02-24T08:51:41.494Z,1032.11
2019-02-24T08:52:41.475Z,1032.18
2019-02-24T08:53:41.493Z,1032.18
2019-02-24T08:54:41.447Z,1032.17
2019-02-24T08:55:41.453Z,1032.21
2019-02-24T08:56:41.434Z,1032.18
2019-02-24T08:57:41.456Z,1032.21
2019-02-24T08:58:41.412Z,1032.21
2019-02-24T08:59:41.389Z,1032.16
2019-02-24T09:00:50.488Z,1032.16
2019-02-24T09:01:42.380Z,1032.17
2019-02-24T09:02:41.366Z,1032.22
2019-02-24T09:03:41.379Z,1032.26
2019-02-24T09:04:41.353Z,1032.31
2019-02-24T09:05:41.329Z,1032.28
2019-02-24T09:06:41.316Z,1032.32
2019-02-24T09:07:41.315Z,1032.17
2019-02-24T09:08:41.322Z,1032.16
2019-02-24T09:09:41.298Z,1032.10
2019-02-24T09:10:41.280Z,1032.06
2019-02-24T09:11:41.261Z,1032.01
2019-02-24T09:12:41.249Z,1031.96
2019-02-24T09:13:41.257Z,1031.97
2019-02-24T09:14:41.233Z,1032.02
2019-02-24T09:15:41.234Z,1032.05
2019-02-24T09:16:41.223Z,1032.09
2019-02-24T09:17:41.202Z,1032.12
2019-02-24T09:18:41.198Z,1032.22
2019-02-24T09:19:41.206Z,1032.20
2019-02-24T09:20:41.174Z,1032.18
2019-02-24T09:21:41.165Z,1032.25
2019-02-24T09:22:41.147Z,1032.24
2019-02-24T09:23:41.141Z,1032.29
2019-02-24T09:24:41.137Z,1032.38
2019-02-24T09:25:41.108Z,1032.34
2019-02-24T09:26:41.095Z,1032.42
2019-02-24T09:27:41.091Z,1032.45
2019-02-24T09:28:41.090Z,1032.52
2019-02-24T09:29:41.135Z,1032.53
2019-02-24T09:30:41.735Z,1032.59
2019-02-24T09:31:41.073Z,1032.59
2019-02-24T09:32:41.035Z,1032.57
2019-02-24T09:33:41.054Z,1032.59
2019-02-24T09:34:41.008Z,1032.62
2019-02-24T09:35:41.030Z,1032.60
2019-02-24T09:36:40.997Z,1032.61
2019-02-24T09:37:40.983Z,1032.64
2019-02-24T09:38:41.307Z,1032.68
2019-02-24T09:39:41.062Z,1032.70
2019-02-24T09:40:40.986Z,1032.67
2019-02-24T09:41:40.943Z,1032.68
2019-02-24T09:42:40.933Z,1032.70
2019-02-24T09:43:40.910Z,1032.68
2019-02-24T09:44:42.457Z,1032.74
2019-02-24T09:45:40.960Z,1032.62
2019-02-24T09:46:40.915Z,1032.61
2019-02-24T09:47:46.640Z,1032.58
2019-02-24T09:48:41.858Z,1032.60
2019-02-24T09:49:40.849Z,1032.61
2019-02-24T09:50:41.246Z,1032.61
2019-02-24T09:51:40.842Z,1032.65
2019-02-24T09:52:40.828Z,1032.61
2019-02-24T09:53:40.811Z,1032.65
2019-02-24T09:54:40.799Z,1032.65
2019-02-24T09:55:40.793Z,1032.58
2019-02-24T09:56:40.806Z,1032.68
2019-02-24T09:57:40.775Z,1032.66
2019-02-24T09:58:40.756Z,1032.67
2019-02-24T09:59:40.753Z,1032.71
2019-02-24T10:00:40.737Z,1032.71
2019-02-24T10:01:40.752Z,1032.70
2019-02-24T10:02:40.705Z,1032.64
2019-02-24T10:03:40.703Z,1032.56
2019-02-24T10:04:40.691Z,1032.59
2019-02-24T10:05:40.683Z,1032.58
2019-02-24T10:06:40.674Z,1032.52
2019-02-24T10:07:40.678Z,1032.52
2019-02-24T10:08:40.639Z,1032.47
2019-02-24T10:09:40.648Z,1032.50
2019-02-24T10:10:40.641Z,1032.48
2019-02-24T10:11:40.632Z,1032.49
2019-02-24T10:12:40.625Z,1032.46
2019-02-24T10:13:40.612Z,1032.44
2019-02-24T10:14:40.590Z,1032.44
2019-02-24T10:15:40.576Z,1032.41
2019-02-24T10:16:40.580Z,1032.44
2019-02-24T10:17:40.632Z,1032.47
2019-02-24T10:18:40.544Z,1032.42
2019-02-24T10:19:40.532Z,1032.46
2019-02-24T10:20:40.519Z,1032.45
2019-02-24T10:21:40.499Z,1032.41
2019-02-24T10:22:40.494Z,1032.38
2019-02-24T10:23:40.519Z,1032.34
2019-02-24T10:24:40.479Z,1032.38
2019-02-24T10:25:40.486Z,1032.39
2019-02-24T10:26:40.450Z,1032.39
2019-02-24T10:27:40.455Z,1032.41
2019-02-24T10:28:40.497Z,1032.41
2019-02-24T10:29:40.455Z,1032.42
2019-02-24T10:30:40.424Z,1032.45
2019-02-24T10:31:40.402Z,1032.47
2019-02-24T10:32:40.394Z,1032.53
2019-02-24T10:33:40.379Z,1032.59
2019-02-24T10:34:40.397Z,1032.62
2019-02-24T10:35:40.376Z,1032.64
2019-02-24T10:36:40.360Z,1032.64
2019-02-24T10:37:40.353Z,1032.68
2019-02-24T10:38:40.363Z,1032.68
2019-02-24T10:39:40.349Z,1032.62
2019-02-24T10:40:40.308Z,1032.62
2019-02-24T10:41:40.316Z,1032.56
2019-02-24T10:42:40.293Z,1032.56
2019-02-24T10:43:40.281Z,1032.53
2019-02-24T10:44:40.288Z,1032.50
2019-02-24T10:45:40.273Z,1032.54
2019-02-24T10:46:40.265Z,1032.52
2019-02-24T10:47:40.245Z,1032.52
2019-02-24T10:48:40.228Z,1032.53
2019-02-24T10:49:40.228Z,1032.54
2019-02-24T10:50:40.242Z,1032.57
2019-02-24T10:51:40.192Z,1032.58
2019-02-24T10:52:40.178Z,1032.59
2019-02-24T10:53:40.177Z,1032.59
2019-02-24T10:54:40.157Z,1032.61
2019-02-24T10:55:40.158Z,1032.57
2019-02-24T10:56:40.204Z,1032.52
2019-02-24T10:57:40.124Z,1032.48
2019-02-24T10:58:40.111Z,1032.47
2019-02-24T10:59:40.120Z,1032.44
2019-02-24T11:00:40.136Z,1032.42
2019-02-24T11:01:40.093Z,1032.46
2019-02-24T11:02:40.086Z,1032.49
2019-02-24T11:03:40.070Z,1032.51
2019-02-24T11:04:40.055Z,1032.52
2019-02-24T11:05:40.049Z,1032.49
2019-02-24T11:06:40.063Z,1032.51
2019-02-24T11:07:40.040Z,1032.45
2019-02-24T11:08:40.022Z,1032.46
2019-02-24T11:09:40.009Z,1032.48
2019-02-24T11:10:40.001Z,1032.50
2019-02-24T11:11:39.984Z,1032.49
2019-02-24T11:12:40.002Z,1032.40
2019-02-24T11:13:39.966Z,1032.42
2019-02-24T11:14:39.951Z,1032.41
2019-02-24T11:15:39.935Z,1032.44
2019-02-24T11:16:39.976Z,1032.45
2019-02-24T11:17:39.914Z,1032.47
2019-02-24T11:18:39.929Z,1032.52
2019-02-24T11:19:39.900Z,1032.52
2019-02-24T11:20:39.889Z,1032.52
2019-02-24T11:21:39.904Z,1032.48
2019-02-24T11:22:39.868Z,1032.47
2019-02-24T11:23:39.854Z,1032.44
2019-02-24T11:24:39.843Z,1032.46
2019-02-24T11:25:39.827Z,1032.50
2019-02-24T11:26:39.839Z,1032.47
2019-02-24T11:27:39.822Z,1032.47
2019-02-24T11:28:39.808Z,1032.49
2019-02-24T11:29:39.790Z,1032.51
2019-02-24T11:30:39.779Z,1032.52
2019-02-24T11:31:39.796Z,1032.48
2019-02-24T11:32:39.765Z,1032.49
2019-02-24T11:33:39.760Z,1032.51
2019-02-24T11:34:39.773Z,1032.49
2019-02-24T11:35:39.728Z,1032.50
2019-02-24T11:36:39.732Z,1032.41
2019-02-24T11:37:39.705Z,1032.40
2019-02-24T11:38:39.689Z,1032.45
2019-02-24T11:39:39.694Z,1032.47
2019-02-24T11:40:39.684Z,1032.46
2019-02-24T11:41:39.694Z,1032.50
2019-02-24T11:42:39.667Z,1032.55
2019-02-24T11:43:39.642Z,1032.51
2019-02-24T11:44:39.639Z,1032.49
2019-02-24T11:45:39.632Z,1032.50
2019-02-24T11:46:39.642Z,1032.52
2019-02-24T11:47:39.604Z,1032.51
2019-02-24T11:48:39.592Z,1032.49
2019-02-24T11:49:39.577Z,1032.51
2019-02-24T11:50:39.570Z,1032.49
2019-02-24T11:51:39.598Z,1032.57
2019-02-24T11:52:39.557Z,1032.58
2019-02-24T11:53:39.552Z,1032.60
2019-02-24T11:54:39.548Z,1032.62
2019-02-24T11:55:39.519Z,1032.57
2019-02-24T11:56:39.509Z,1032.60
2019-02-24T11:57:39.521Z,1032.59
2019-02-24T11:58:39.493Z,1032.55
2019-02-24T11:59:39.481Z,1032.47
2019-02-24T12:00:39.475Z,1032.41
2019-02-24T12:01:47.241Z,1032.38
2019-02-24T12:02:41.882Z,1032.36
2019-02-24T12:03:39.449Z,1032.38
2019-02-24T12:04:39.432Z,1032.26
2019-02-24T12:05:39.421Z,1032.35